Time;durP1;ratioP1;P1;durP2;ratioP2;P2;SDS_P1;SDS_P2;PMS_P1;PMS_P2;Temp;Humidity;BMP_temperature;BMP_pressure;BME280_temperature;BME280_humidity;BME280_pressure;Samples;Min_cycle;Max_cycle;Signal;HPM_P1;HPM_P2
2021/06/22 00:00:52;;;;;;;0.00;0.00;;;;;;;;;;5083883;28;20216;-68
2021/06/22 00:03:20;;;;;;;0.00;0.00;;;;;;;;;;5084300;28;20265;-68
2021/06/22 00:05:46;;;;;;;0.00;0.00;;;;;;;;;;5084608;28;20500;-68
2021/06/22 00:08:12;;;;;;;0.00;0.00;;;;;;;;;;5097866;28;20205;-68
2021/06/22 00:10:39;;;;;;;0.00;0.00;;;;;;;;;;5098410;28;20214;-68
2021/06/22 00:13:05;;;;;;;0.00;0.00;;;;;;;;;;5095307;28;20229;-68
2021/06/22 00:15:32;;;;;;;0.00;0.00;;;;;;;;;;5085918;28;20209;-68
2021/06/22 00:17:59;;;;;;;0.00;0.00;;;;;;;;;;5089350;28;20208;-68
2021/06/22 00:20:27;;;;;;;0.00;0.00;;;;;;;;;;5103759;28;20242;-68
2021/06/22 00:22:54;;;;;;;0.00;0.00;;;;;;;;;;5089283;28;20202;-68
2021/06/22 00:25:21;;;;;;;0.00;0.00;;;;;;;;;;5093382;28;20228;-68
2021/06/22 00:27:48;;;;;;;0.10;0.10;;;;;;;;;;5097823;28;20206;-68
2021/06/22 00:30:15;;;;;;;0.05;0.05;;;;;;;;;;5083682;28;20357;-67
2021/06/22 00:32:41;;;;;;;0.00;0.00;;;;;;;;;;5084241;28;20229;-68
2021/06/22 00:35:08;;;;;;;0.00;0.00;;;;;;;;;;5096639;28;20255;-68
2021/06/22 00:37:36;;;;;;;0.00;0.00;;;;;;;;;;5083512;28;20297;-68
2021/06/22 00:40:02;;;;;;;0.65;0.65;;;;;;;;;;5097297;28;20214;-68
2021/06/22 00:42:28;;;;;;;0.10;0.10;;;;;;;;;;5095132;28;20436;-68
2021/06/22 00:44:57;;;;;;;0.00;0.00;;;;;;;;;;5085761;28;20205;-68
2021/06/22 00:47:23;;;;;;;0.00;0.00;;;;;;;;;;5093335;28;20237;-68
2021/06/22 00:49:50;;;;;;;0.10;0.10;;;;;;;;;;5103542;28;20411;-68
2021/06/22 00:52:19;;;;;;;0.00;0.00;;;;;;;;;;5094908;28;20225;-69
2021/06/22 00:54:47;;;;;;;0.35;0.35;;;;;;;;;;5097601;28;20371;-67
2021/06/22 00:57:14;;;;;;;0.00;0.00;;;;;;;;;;5086094;28;20260;-67
2021/06/22 00:59:40;;;;;;;0.00;0.00;;;;;;;;;;5086449;28;20203;-67
2021/06/22 01:02:07;;;;;;;0.10;0.10;;;;;;;;;;5083545;28;20210;-67
2021/06/22 01:04:33;;;;;;;0.00;0.00;;;;;;;;;;5100966;28;20254;-67
2021/06/22 01:07:00;;;;;;;0.00;0.00;;;;;;;;;;5088560;28;20217;-67
2021/06/22 01:09:28;;;;;;;0.00;0.00;;;;;;;;;;5094398;28;20260;-67
2021/06/22 01:11:56;;;;;;;0.00;0.00;;;;;;;;;;5083619;28;20328;-67
2021/06/22 01:14:22;;;;;;;0.10;0.10;;;;;;;;;;5095591;28;20244;-67
2021/06/22 01:16:48;;;;;;;0.00;0.00;;;;;;;;;;5083228;28;20203;-67
2021/06/22 01:19:15;;;;;;;0.08;0.08;;;;;;;;;;5096875;28;20212;-67
2021/06/22 01:21:43;;;;;;;0.03;0.03;;;;;;;;;;5082904;28;20272;-67
2021/06/22 01:24:10;;;;;;;0.00;0.00;;;;;;;;;;5100552;28;20226;-67
2021/06/22 01:26:37;;;;;;;0.10;0.10;;;;;;;;;;5093020;28;20226;-68
2021/06/22 01:29:04;;;;;;;0.00;0.00;;;;;;;;;;5084822;28;20210;-68
2021/06/22 01:31:30;;;;;;;1.10;1.10;;;;;;;;;;5102967;28;20211;-67
2021/06/22 01:33:56;;;;;;;0.15;0.15;;;;;;;;;;5102689;28;20534;-67
2021/06/22 01:36:23;;;;;;;0.10;0.10;;;;;;;;;;5102882;28;20208;-67
2021/06/22 01:38:50;;;;;;;0.10;0.10;;;;;;;;;;5090977;28;20206;-67
2021/06/22 01:41:17;;;;;;;0.00;0.00;;;;;;;;;;5101125;28;20293;-68
2021/06/22 01:43:43;;;;;;;0.00;0.00;;;;;;;;;;5102675;28;20209;-68
2021/06/22 01:46:09;;;;;;;0.00;0.00;;;;;;;;;;5088717;28;20246;-67
2021/06/22 01:48:35;;;;;;;0.00;0.00;;;;;;;;;;5094215;28;20205;-68
2021/06/22 01:51:01;;;;;;;0.00;0.00;;;;;;;;;;5082635;28;20213;-67
2021/06/22 01:53:28;;;;;;;0.00;0.00;;;;;;;;;;5089060;28;20232;-67
2021/06/22 01:55:55;;;;;;;0.22;0.22;;;;;;;;;;5102979;28;20334;-68
2021/06/22 01:58:22;;;;;;;0.08;0.08;;;;;;;;;;5098287;28;20276;-67
2021/06/22 02:00:49;;;;;;;0.10;0.10;;;;;;;;;;5093515;28;20204;-69
2021/06/22 02:03:16;;;;;;;0.00;0.00;;;;;;;;;;5102845;28;20317;-68
2021/06/22 02:05:42;;;;;;;0.10;0.10;;;;;;;;;;5102293;28;20504;-67
2021/06/22 02:08:09;;;;;;;0.00;0.00;;;;;;;;;;5088456;28;20205;-68
2021/06/22 02:10:35;;;;;;;0.00;0.00;;;;;;;;;;5088483;28;20214;-68
2021/06/22 02:13:03;;;;;;;0.00;0.00;;;;;;;;;;5102412;28;20226;-68
2021/06/22 02:15:30;;;;;;;0.10;0.10;;;;;;;;;;5100064;28;20552;-68
2021/06/22 02:17:56;;;;;;;0.08;0.08;;;;;;;;;;5091065;28;20237;-68
2021/06/22 02:20:22;;;;;;;0.10;0.10;;;;;;;;;;5081959;28;20201;-69
2021/06/22 02:22:48;;;;;;;0.00;0.00;;;;;;;;;;5084830;28;20273;-68
2021/06/22 02:25:15;;;;;;;0.03;0.03;;;;;;;;;;5099724;28;20240;-68
2021/06/22 02:27:42;;;;;;;0.10;0.10;;;;;;;;;;5093045;28;20382;-68
2021/06/22 02:30:11;;;;;;;0.10;0.10;;;;;;;;;;5092060;28;20248;-68
2021/06/22 02:32:38;;;;;;;0.03;0.03;;;;;;;;;;5091499;28;20271;-68
2021/06/22 02:35:05;;;;;;;0.10;0.10;;;;;;;;;;5093993;28;20557;-68
2021/06/22 02:37:31;;;;;;;0.00;0.00;;;;;;;;;;5089238;28;20204;-68
2021/06/22 02:39:57;;;;;;;0.38;0.38;;;;;;;;;;5105814;28;20251;-68
2021/06/22 02:42:23;;;;;;;0.25;0.25;;;;;;;;;;5089100;28;20214;-68
2021/06/22 02:44:50;;;;;;;0.00;0.00;;;;;;;;;;5093640;28;20243;-68
2021/06/22 02:47:17;;;;;;;0.10;0.10;;;;;;;;;;5105275;28;20374;-68
2021/06/22 02:49:46;;;;;;;0.10;0.10;;;;;;;;;;5085335;28;20211;-69
2021/06/22 02:52:12;;;;;;;0.00;0.00;;;;;;;;;;5097928;28;20349;-67
2021/06/22 02:54:38;;;;;;;0.05;0.05;;;;;;;;;;5091355;28;20227;-69
2021/06/22 02:57:05;;;;;;;0.05;0.05;;;;;;;;;;5105195;28;20205;-69
2021/06/22 02:59:32;;;;;;;0.10;0.10;;;;;;;;;;5088131;28;20504;-69
2021/06/22 03:01:58;;;;;;;0.00;0.00;;;;;;;;;;5085174;28;20225;-69
2021/06/22 03:04:26;;;;;;;0.10;0.10;;;;;;;;;;5096434;28;20211;-69
2021/06/22 03:06:52;;;;;;;0.00;0.00;;;;;;;;;;5091002;28;20203;-68
2021/06/22 03:09:18;;;;;;;0.00;0.00;;;;;;;;;;5105198;28;20246;-68
2021/06/22 03:11:44;;;;;;;0.00;0.00;;;;;;;;;;5105016;28;20412;-68
2021/06/22 03:14:11;;;;;;;0.10;0.10;;;;;;;;;;5096455;28;20222;-68
2021/06/22 03:16:37;;;;;;;0.10;0.10;;;;;;;;;;5098986;28;20205;-68
2021/06/22 03:19:03;;;;;;;0.00;0.00;;;;;;;;;;5090683;28;20208;-68
2021/06/22 03:21:31;;;;;;;0.00;0.00;;;;;;;;;;5092719;28;20388;-69
2021/06/22 03:23:57;;;;;;;0.00;0.00;;;;;;;;;;5084295;28;20270;-68
2021/06/22 03:26:23;;;;;;;0.08;0.08;;;;;;;;;;5084304;28;20226;-68
2021/06/22 03:28:49;;;;;;;0.10;0.10;;;;;;;;;;5086827;28;20227;-68
2021/06/22 03:31:16;;;;;;;0.10;0.10;;;;;;;;;;5104710;28;20514;-67
2021/06/22 03:33:42;;;;;;;0.00;0.00;;;;;;;;;;5089853;28;20279;-67
2021/06/22 03:36:08;;;;;;;0.00;0.00;;;;;;;;;;5104926;28;20240;-69
2021/06/22 03:38:36;;;;;;;0.00;0.00;;;;;;;;;;5104001;28;20401;-68
2021/06/22 03:41:02;;;;;;;0.00;0.00;;;;;;;;;;5104473;28;20249;-68
2021/06/22 03:43:28;;;;;;;0.10;0.10;;;;;;;;;;5093361;28;20205;-68
2021/06/22 03:45:55;;;;;;;0.00;0.00;;;;;;;;;;5084172;28;20207;-70
2021/06/22 03:48:21;;;;;;;0.00;0.00;;;;;;;;;;5093686;28;20207;-69
2021/06/22 03:50:48;;;;;;;0.00;0.00;;;;;;;;;;5089972;28;20208;-69
2021/06/22 03:53:14;;;;;;;0.00;0.00;;;;;;;;;;5101484;28;20209;-69
2021/06/22 03:55:41;;;;;;;0.00;0.00;;;;;;;;;;5097593;28;20287;-69
2021/06/22 03:58:08;;;;;;;0.00;0.00;;;;;;;;;;5083524;28;20213;-69
2021/06/22 04:00:34;;;;;;;0.00;0.00;;;;;;;;;;5083457;28;20206;-69
2021/06/22 04:03:01;;;;;;;0.10;0.10;;;;;;;;;;5098023;28;20216;-68
2021/06/22 04:05:27;;;;;;;0.32;0.32;;;;;;;;;;5083916;28;20286;-67
2021/06/22 04:07:54;;;;;;;0.00;0.00;;;;;;;;;;5083934;28;20278;-68
2021/06/22 04:10:20;;;;;;;0.00;0.00;;;;;;;;;;5087973;28;20214;-68
2021/06/22 04:12:47;;;;;;;0.03;0.03;;;;;;;;;;5093780;28;20207;-67
2021/06/22 04:15:14;;;;;;;0.10;0.10;;;;;;;;;;5083984;28;20271;-69
2021/06/22 04:17:40;;;;;;;1.25;1.25;;;;;;;;;;5083575;28;20215;-68
2021/06/22 04:20:07;;;;;;;0.00;0.00;;;;;;;;;;5098015;28;20379;-68
2021/06/22 04:22:33;;;;;;;0.10;0.10;;;;;;;;;;5090488;28;20211;-69
2021/06/22 04:24:59;;;;;;;0.00;0.00;;;;;;;;;;5091083;28;20540;-69
2021/06/22 04:27:25;;;;;;;0.00;0.00;;;;;;;;;;5088542;28;20206;-68
2021/06/22 04:29:53;;;;;;;0.10;0.10;;;;;;;;;;5092560;28;20356;-69
2021/06/22 04:32:19;;;;;;;0.00;0.00;;;;;;;;;;5086533;28;20210;-68
2021/06/22 04:34:45;;;;;;;0.08;0.08;;;;;;;;;;5094034;28;20437;-67
2021/06/22 04:37:12;;;;;;;0.10;0.10;;;;;;;;;;5097145;28;20291;-68
2021/06/22 04:39:38;;;;;;;0.00;0.00;;;;;;;;;;5082932;28;20269;-68
2021/06/22 04:42:04;;;;;;;0.10;0.10;;;;;;;;;;5097014;28;20201;-68
2021/06/22 04:44:30;;;;;;;0.10;0.10;;;;;;;;;;5102690;28;20204;-68
2021/06/22 04:46:58;;;;;;;0.00;0.00;;;;;;;;;;5091384;28;20380;-67
2021/06/22 04:49:24;;;;;;;0.10;0.10;;;;;;;;;;5101543;28;20249;-68
2021/06/22 04:51:50;;;;;;;0.00;0.00;;;;;;;;;;5093131;28;20206;-69
2021/06/22 04:54:17;;;;;;;0.10;0.10;;;;;;;;;;5083011;28;20287;-69
2021/06/22 04:56:45;;;;;;;0.00;0.00;;;;;;;;;;5083122;28;20212;-68
2021/06/22 04:59:11;;;;;;;0.00;0.00;;;;;;;;;;5082928;28;20205;-68
2021/06/22 05:01:38;;;;;;;0.10;0.10;;;;;;;;;;5089732;28;20204;-68
2021/06/22 05:04:06;;;;;;;0.10;0.10;;;;;;;;;;5094523;28;20199;-67
2021/06/22 05:06:32;;;;;;;0.00;0.00;;;;;;;;;;5097877;28;20251;-68
2021/06/22 05:08:58;;;;;;;0.00;0.00;;;;;;;;;;5096562;28;20467;-69
2021/06/22 05:11:24;;;;;;;0.10;0.10;;;;;;;;;;5095974;28;20212;-68
2021/06/22 05:13:51;;;;;;;0.00;0.00;;;;;;;;;;5097955;28;20225;-69
2021/06/22 05:16:18;;;;;;;0.10;0.10;;;;;;;;;;5088909;28;20477;-68
2021/06/22 05:18:44;;;;;;;0.00;0.00;;;;;;;;;;5093457;28;20242;-69
2021/06/22 05:21:12;;;;;;;0.47;0.47;;;;;;;;;;5091602;28;20208;-68
2021/06/22 05:23:38;;;;;;;0.10;0.10;;;;;;;;;;5091234;28;20205;-68
2021/06/22 05:26:05;;;;;;;0.10;0.10;;;;;;;;;;5096798;28;20515;-68
2021/06/22 05:28:31;;;;;;;0.05;0.05;;;;;;;;;;5098269;28;20205;-68
2021/06/22 05:30:57;;;;;;;0.10;0.10;;;;;;;;;;5094145;28;20260;-69
2021/06/22 05:33:23;;;;;;;0.08;0.08;;;;;;;;;;5097345;28;20507;-68
2021/06/22 05:35:50;;;;;;;0.10;0.10;;;;;;;;;;5093916;28;20225;-69
2021/06/22 05:38:17;;;;;;;0.00;0.00;;;;;;;;;;5095096;28;20199;-68
2021/06/22 05:40:43;;;;;;;0.00;0.00;;;;;;;;;;5093995;28;20560;-68
2021/06/22 05:43:10;;;;;;;0.03;0.03;;;;;;;;;;5097619;28;20200;-68
2021/06/22 05:45:36;;;;;;;0.10;0.10;;;;;;;;;;5096723;28;20220;-69
2021/06/22 05:48:03;;;;;;;0.10;0.10;;;;;;;;;;5092969;28;20223;-69
2021/06/22 05:50:29;;;;;;;0.10;0.10;;;;;;;;;;5084024;28;20389;-69
2021/06/22 05:52:56;;;;;;;0.10;0.10;;;;;;;;;;5098276;28;20203;-69
2021/06/22 05:55:23;;;;;;;0.00;0.00;;;;;;;;;;5095254;28;20287;-69
2021/06/22 05:57:50;;;;;;;0.00;0.00;;;;;;;;;;5101293;28;20212;-70
2021/06/22 06:00:17;;;;;;;0.10;0.10;;;;;;;;;;5098484;28;20452;-69
2021/06/22 06:02:44;;;;;;;0.00;0.00;;;;;;;;;;5105762;28;20221;-69
2021/06/22 06:05:11;;;;;;;0.00;0.00;;;;;;;;;;5099190;28;20536;-69
2021/06/22 06:07:39;;;;;;;0.00;0.00;;;;;;;;;;5099595;28;20488;-69
2021/06/22 06:10:06;;;;;;;0.10;0.10;;;;;;;;;;5098761;28;20221;-69
2021/06/22 06:12:33;;;;;;;0.10;0.10;;;;;;;;;;5097483;28;20222;-69
2021/06/22 06:14:59;;;;;;;0.63;0.63;;;;;;;;;;5093298;28;20233;-69
2021/06/22 06:17:26;;;;;;;0.00;0.00;;;;;;;;;;5099473;28;20220;-69
2021/06/22 06:19:52;;;;;;;0.05;0.05;;;;;;;;;;5092423;28;20259;-69
2021/06/22 06:22:18;;;;;;;0.08;0.08;;;;;;;;;;5095275;28;20198;-69
2021/06/22 06:24:45;;;;;;;0.00;0.00;;;;;;;;;;5096956;28;20283;-69
2021/06/22 06:27:13;;;;;;;0.00;0.00;;;;;;;;;;5092450;28;20206;-69
2021/06/22 06:29:47;;;;;;;0.10;0.10;;;;;;;;;;5097576;28;20456;-69
2021/06/22 06:32:14;;;;;;;0.00;0.00;;;;;;;;;;5090004;28;20234;-69
2021/06/22 06:34:40;;;;;;;0.00;0.00;;;;;;;;;;5096421;28;20282;-69
2021/06/22 06:37:06;;;;;;;0.10;0.10;;;;;;;;;;5103350;28;20213;-70
2021/06/22 06:39:32;;;;;;;0.00;0.00;;;;;;;;;;5094538;28;20482;-69
2021/06/22 06:41:58;;;;;;;0.00;0.00;;;;;;;;;;5100220;28;20487;-70
2021/06/22 06:44:25;;;;;;;0.00;0.00;;;;;;;;;;5105866;28;20264;-69
2021/06/22 06:46:52;;;;;;;0.03;0.03;;;;;;;;;;5092468;28;20203;-69
2021/06/22 06:49:18;;;;;;;0.00;0.00;;;;;;;;;;5102056;28;20203;-69
2021/06/22 06:51:44;;;;;;;0.10;0.10;;;;;;;;;;5095562;28;20207;-69
2021/06/22 06:54:11;;;;;;;0.10;0.10;;;;;;;;;;5104706;28;20195;-69
2021/06/22 06:56:37;;;;;;;0.10;0.10;;;;;;;;;;5092404;28;20203;-69
2021/06/22 06:59:03;;;;;;;0.10;0.10;;;;;;;;;;5101737;28;20451;-69
2021/06/22 07:01:29;;;;;;;0.10;0.10;;;;;;;;;;5088240;28;20201;-69
2021/06/22 07:03:58;;;;;;;0.00;0.00;;;;;;;;;;5091616;28;20237;-69
2021/06/22 07:06:25;;;;;;;0.00;0.00;;;;;;;;;;5085509;28;20204;-69
2021/06/22 07:08:51;;;;;;;0.30;0.30;;;;;;;;;;5090695;28;20491;-69
2021/06/22 07:11:21;;;;;;;0.00;0.00;;;;;;;;;;5105355;28;20208;-69
2021/06/22 07:13:47;;;;;;;0.15;0.15;;;;;;;;;;5100827;28;20208;-70
2021/06/22 07:16:13;;;;;;;0.10;0.10;;;;;;;;;;5096384;28;20229;-70
2021/06/22 07:18:39;;;;;;;0.00;0.00;;;;;;;;;;5105742;28;20202;-69
2021/06/22 07:21:07;;;;;;;0.10;0.10;;;;;;;;;;5105657;28;20199;-70
2021/06/22 07:23:33;;;;;;;0.00;0.00;;;;;;;;;;5105412;28;20207;-70
2021/06/22 07:25:59;;;;;;;0.00;0.00;;;;;;;;;;5097895;28;20220;-70
2021/06/22 07:28:25;;;;;;;0.10;0.10;;;;;;;;;;5085227;28;20203;-70
2021/06/22 07:30:52;;;;;;;0.05;0.05;;;;;;;;;;5104370;28;20199;-70
2021/06/22 07:33:18;;;;;;;0.00;0.00;;;;;;;;;;5105388;28;20199;-70
2021/06/22 07:35:44;;;;;;;0.00;0.00;;;;;;;;;;5105334;28;20411;-71
2021/06/22 07:38:12;;;;;;;0.10;0.10;;;;;;;;;;5104939;28;20223;-67
2021/06/22 07:40:38;;;;;;;0.05;0.05;;;;;;;;;;5104864;28;20211;-68
2021/06/22 07:43:05;;;;;;;0.10;0.10;;;;;;;;;;5104454;28;20203;-70
2021/06/22 07:45:31;;;;;;;0.00;0.00;;;;;;;;;;5090473;28;20204;-69
2021/06/22 07:47:57;;;;;;;0.10;0.10;;;;;;;;;;5090611;28;20495;-67
2021/06/22 07:50:23;;;;;;;0.00;0.00;;;;;;;;;;5104702;28;20225;-69
2021/06/22 07:52:50;;;;;;;0.00;0.00;;;;;;;;;;5086099;28;20196;-67
2021/06/22 07:55:17;;;;;;;0.10;0.10;;;;;;;;;;5087055;28;20523;-69
2021/06/22 07:57:44;;;;;;;0.00;0.00;;;;;;;;;;5100804;28;20208;-67
2021/06/22 08:00:19;;;;;;;0.10;0.10;;;;;;;;;;5095707;28;20253;-69
2021/06/22 08:02:45;;;;;;;0.00;0.00;;;;;;;;;;5091350;28;20448;-67
2021/06/22 08:05:12;;;;;;;0.10;0.10;;;;;;;;;;5098031;28;20321;-68
2021/06/22 08:07:38;;;;;;;0.00;0.00;;;;;;;;;;5094339;28;20206;-67
2021/06/22 08:10:05;;;;;;;0.00;0.00;;;;;;;;;;5096252;28;20233;-67
2021/06/22 08:12:32;;;;;;;0.00;0.00;;;;;;;;;;5100514;28;20202;-68
2021/06/22 08:14:59;;;;;;;0.10;0.10;;;;;;;;;;5103419;28;20215;-69
2021/06/22 08:17:25;;;;;;;0.05;0.05;;;;;;;;;;5084055;28;20203;-69
2021/06/22 08:19:52;;;;;;;0.00;0.00;;;;;;;;;;5089552;28;20211;-69
2021/06/22 08:22:18;;;;;;;0.10;0.10;;;;;;;;;;5100366;28;20207;-68
2021/06/22 08:24:44;;;;;;;0.00;0.00;;;;;;;;;;5094390;28;20530;-69
2021/06/22 08:27:11;;;;;;;0.10;0.10;;;;;;;;;;5088624;28;20200;-68
2021/06/22 08:29:38;;;;;;;0.00;0.00;;;;;;;;;;5090217;28;20515;-69
2021/06/22 08:32:05;;;;;;;0.00;0.00;;;;;;;;;;5097882;28;20206;-68
2021/06/22 08:34:31;;;;;;;0.00;0.00;;;;;;;;;;5088543;28;20384;-68
2021/06/22 08:36:57;;;;;;;0.00;0.00;;;;;;;;;;5097096;28;20227;-69
2021/06/22 08:39:24;;;;;;;0.08;0.08;;;;;;;;;;5091724;28;20208;-68
2021/06/22 08:41:50;;;;;;;0.00;0.00;;;;;;;;;;5102589;28;20248;-68
2021/06/22 08:44:18;;;;;;;0.00;0.00;;;;;;;;;;5096999;28;20200;-69
2021/06/22 08:46:46;;;;;;;0.00;0.00;;;;;;;;;;5089326;28;20199;-69
2021/06/22 08:49:13;;;;;;;0.00;0.00;;;;;;;;;;5101166;28;20215;-69
2021/06/22 08:51:41;;;;;;;0.10;0.10;;;;;;;;;;5087581;28;20203;-68
2021/06/22 08:54:08;;;;;;;0.00;0.00;;;;;;;;;;5098310;28;20202;-68
2021/06/22 08:56:36;;;;;;;0.08;0.08;;;;;;;;;;5096340;28;20587;-68
2021/06/22 08:59:03;;;;;;;0.05;0.05;;;;;;;;;;5099101;28;20229;-68
2021/06/22 09:01:29;;;;;;;0.10;0.10;;;;;;;;;;5103490;28;20206;-69
2021/06/22 09:03:57;;;;;;;0.08;0.08;;;;;;;;;;5102705;28;20195;-68
2021/06/22 09:06:24;;;;;;;0.10;0.10;;;;;;;;;;5086151;28;20233;-68
2021/06/22 09:08:51;;;;;;;0.10;0.10;;;;;;;;;;5088710;28;20199;-69
2021/06/22 09:11:18;;;;;;;0.00;0.00;;;;;;;;;;5098240;28;20505;-70
2021/06/22 09:13:54;;;;;;;0.10;0.10;;;;;;;;;;5084684;28;20200;-69
2021/06/22 09:16:21;;;;;;;0.10;0.10;;;;;;;;;;5082901;28;20254;-69
2021/06/22 09:18:48;;;;;;;0.10;0.10;;;;;;;;;;5092058;28;20200;-69
2021/06/22 09:21:18;;;;;;;1.20;1.20;;;;;;;;;;5085457;28;20472;-69
2021/06/22 09:23:45;;;;;;;0.00;0.00;;;;;;;;;;5099398;28;20202;-70
2021/06/22 09:26:12;;;;;;;0.00;0.00;;;;;;;;;;5092286;28;20245;-69
2021/06/22 09:28:39;;;;;;;0.10;0.10;;;;;;;;;;5090384;28;20210;-69
2021/06/22 09:31:06;;;;;;;0.00;0.00;;;;;;;;;;5102623;28;20203;-69
2021/06/22 09:33:34;;;;;;;0.00;0.00;;;;;;;;;;5102984;28;20204;-70
2021/06/22 09:36:05;;;;;;;0.00;0.00;;;;;;;;;;5090048;28;20222;-70
2021/06/22 09:38:34;;;;;;;0.10;0.10;;;;;;;;;;5101912;28;20342;-69
2021/06/22 09:41:08;;;;;;;0.10;0.10;;;;;;;;;;5087374;28;20228;-69
2021/06/22 09:43:35;;;;;;;0.10;0.10;;;;;;;;;;5093473;28;20382;-69
2021/06/22 09:46:01;;;;;;;0.10;0.10;;;;;;;;;;5102535;28;20215;-69
2021/06/22 09:48:28;;;;;;;0.00;0.00;;;;;;;;;;5091563;28;20210;-70
2021/06/22 09:50:54;;;;;;;0.00;0.00;;;;;;;;;;5088424;28;20207;-68
2021/06/22 09:53:24;;;;;;;0.10;0.10;;;;;;;;;;5091425;28;20200;-68
2021/06/22 09:55:53;;;;;;;0.05;0.05;;;;;;;;;;5096407;28;20227;-69
2021/06/22 09:58:34;;;;;;;0.00;0.00;;;;;;;;;;5093514;28;20455;-70
2021/06/22 10:01:00;;;;;;;0.30;0.30;;;;;;;;;;5095985;28;20205;-69
2021/06/22 10:03:34;;;;;;;0.00;0.00;;;;;;;;;;5090278;28;20250;-69
2021/06/22 10:06:05;;;;;;;0.10;0.10;;;;;;;;;;5095717;28;20195;-69
2021/06/22 10:08:47;;;;;;;0.00;0.00;;;;;;;;;;5092265;28;20216;-69
2021/06/22 10:11:28;;;;;;;0.05;0.05;;;;;;;;;;5093006;28;20211;-69
2021/06/22 10:13:56;;;;;;;0.10;0.10;;;;;;;;;;5085770;28;20199;-69
2021/06/22 10:16:23;;;;;;;0.10;0.10;;;;;;;;;;5091924;28;20246;-68
2021/06/22 10:18:52;;;;;;;0.00;0.00;;;;;;;;;;5093714;28;20207;-68
2021/06/22 10:21:18;;;;;;;0.10;0.10;;;;;;;;;;5094831;28;20213;-68
2021/06/22 10:23:45;;;;;;;0.15;0.15;;;;;;;;;;5093606;28;20266;-68
2021/06/22 10:26:11;;;;;;;0.00;0.00;;;;;;;;;;5093983;28;20242;-68
2021/06/22 10:28:38;;;;;;;0.28;0.28;;;;;;;;;;5087637;28;20257;-68
2021/06/22 10:31:05;;;;;;;0.08;0.08;;;;;;;;;;5095709;28;20241;-69
2021/06/22 10:33:32;;;;;;;0.00;0.00;;;;;;;;;;5095776;28;20224;-69
2021/06/22 10:35:58;;;;;;;0.00;0.00;;;;;;;;;;5098586;28;20276;-69
2021/06/22 10:38:25;;;;;;;0.10;0.10;;;;;;;;;;5082956;28;20295;-69
2021/06/22 10:40:53;;;;;;;0.03;0.03;;;;;;;;;;5086775;28;20242;-68
2021/06/22 10:43:33;;;;;;;0.00;0.00;;;;;;;;;;5103560;28;20204;-68
2021/06/22 10:46:03;;;;;;;0.08;0.08;;;;;;;;;;5087867;28;20380;-68
2021/06/22 10:48:38;;;;;;;0.00;0.00;;;;;;;;;;5095909;28;20275;-69
2021/06/22 10:51:27;;;;;;;0.10;0.10;;;;;;;;;;5090481;28;20201;-69
2021/06/22 10:53:54;;;;;;;0.10;0.10;;;;;;;;;;5095432;28;20506;-68
2021/06/22 10:56:21;;;;;;;0.10;0.10;;;;;;;;;;5098923;28;20249;-69
2021/06/22 10:59:02;;;;;;;0.00;0.00;;;;;;;;;;5101216;28;20248;-68
2021/06/22 11:01:28;;;;;;;0.03;0.03;;;;;;;;;;5093464;28;20524;-69
2021/06/22 11:04:06;;;;;;;0.10;0.10;;;;;;;;;;5090537;28;20203;-68
2021/06/22 11:06:32;;;;;;;0.10;0.10;;;;;;;;;;5095138;28;20480;-69
2021/06/22 11:09:18;;;;;;;0.10;0.10;;;;;;;;;;5096889;28;20204;-69
2021/06/22 11:11:44;;;;;;;0.10;0.10;;;;;;;;;;5091007;28;20227;-69
2021/06/22 11:14:12;;;;;;;0.00;0.00;;;;;;;;;;5105789;28;20204;-69
2021/06/22 11:16:38;;;;;;;0.10;0.10;;;;;;;;;;5091890;28;20231;-69
2021/06/22 11:19:08;;;;;;;0.00;0.00;;;;;;;;;;5097781;28;20483;-72
2021/06/22 11:21:35;;;;;;;0.10;0.10;;;;;;;;;;5098124;28;20445;-72
2021/06/22 11:24:04;;;;;;;0.00;0.00;;;;;;;;;;5104867;28;20198;-71
2021/06/22 11:26:30;;;;;;;0.10;0.10;;;;;;;;;;5093874;28;20220;-72
2021/06/22 11:28:57;;;;;;;0.08;0.08;;;;;;;;;;5090523;28;20381;-71
2021/06/22 11:31:37;;;;;;;0.00;0.00;;;;;;;;;;5098266;28;20200;-72
2021/06/22 11:34:04;;;;;;;0.10;0.10;;;;;;;;;;5091209;28;20230;-71
2021/06/22 11:36:33;;;;;;;0.00;0.00;;;;;;;;;;5099790;28;20250;-71
2021/06/22 11:39:07;;;;;;;0.00;0.00;;;;;;;;;;5093804;28;20203;-67
2021/06/22 11:41:33;;;;;;;0.63;0.63;;;;;;;;;;5096221;28;20209;-66
2021/06/22 11:44:17;;;;;;;0.08;0.08;;;;;;;;;;5099990;28;20210;-66
2021/06/22 11:46:44;;;;;;;0.00;0.00;;;;;;;;;;5098623;28;20195;-67
2021/06/22 11:49:11;;;;;;;0.00;0.00;;;;;;;;;;5094638;28;20206;-66
2021/06/22 11:51:55;;;;;;;0.00;0.00;;;;;;;;;;5092380;28;20200;-67
2021/06/22 11:54:43;;;;;;;0.00;0.00;;;;;;;;;;5089303;28;20248;-67
2021/06/22 11:57:13;;;;;;;0.10;0.10;;;;;;;;;;5093301;28;20226;-67
2021/06/22 11:59:40;;;;;;;0.00;0.00;;;;;;;;;;5103416;28;20244;-66
2021/06/22 12:02:06;;;;;;;0.08;0.08;;;;;;;;;;5093592;28;20211;-67
2021/06/22 12:04:33;;;;;;;0.00;0.00;;;;;;;;;;5096648;28;20210;-70
2021/06/22 12:06:59;;;;;;;0.10;0.10;;;;;;;;;;5089949;28;20199;-74
2021/06/22 12:09:27;;;;;;;0.10;0.10;;;;;;;;;;5101069;28;20221;-71
2021/06/22 12:11:55;;;;;;;0.00;0.00;;;;;;;;;;5090052;28;20271;-69
2021/06/22 12:14:21;;;;;;;0.00;0.00;;;;;;;;;;5101826;28;20203;-68
2021/06/22 12:16:48;;;;;;;0.00;0.00;;;;;;;;;;5086410;28;20223;-69
2021/06/22 12:19:16;;;;;;;0.00;0.00;;;;;;;;;;5089908;28;20202;-69
2021/06/22 12:21:45;;;;;;;0.00;0.00;;;;;;;;;;5102738;28;20295;-69
2021/06/22 12:24:14;;;;;;;0.00;0.00;;;;;;;;;;5101445;28;20199;-69
2021/06/22 12:26:43;;;;;;;0.00;0.00;;;;;;;;;;5093070;28;20515;-69
2021/06/22 12:29:19;;;;;;;0.00;0.00;;;;;;;;;;5096298;28;20257;-69
2021/06/22 12:31:52;;;;;;;0.00;0.00;;;;;;;;;;5083872;28;20386;-69
2021/06/22 12:34:18;;;;;;;0.00;0.00;;;;;;;;;;5087492;28;20203;-69
2021/06/22 12:36:44;;;;;;;0.00;0.00;;;;;;;;;;5102798;28;20225;-70
2021/06/22 12:39:11;;;;;;;0.10;0.10;;;;;;;;;;5100333;28;20241;-70
2021/06/22 12:41:38;;;;;;;0.08;0.08;;;;;;;;;;5092119;28;20232;-69
2021/06/22 12:44:08;;;;;;;0.00;0.00;;;;;;;;;;5102550;28;20277;-69
2021/06/22 12:46:35;;;;;;;0.10;0.10;;;;;;;;;;5095809;28;20240;-69
2021/06/22 12:49:02;;;;;;;0.10;0.10;;;;;;;;;;5083661;28;20264;-69
2021/06/22 12:51:32;;;;;;;0.10;0.10;;;;;;;;;;5097359;28;20359;-69
2021/06/22 12:53:58;;;;;;;0.00;0.00;;;;;;;;;;5089657;28;20475;-69
2021/06/22 12:56:27;;;;;;;0.00;0.00;;;;;;;;;;5089383;28;20229;-69
2021/06/22 12:58:55;;;;;;;0.08;0.08;;;;;;;;;;5103694;28;20199;-69
2021/06/22 13:01:30;;;;;;;0.10;0.10;;;;;;;;;;5101837;28;20212;-69
2021/06/22 13:03:58;;;;;;;0.00;0.00;;;;;;;;;;5095224;28;20314;-69
2021/06/22 13:06:25;;;;;;;0.10;0.10;;;;;;;;;;5102773;28;20207;-68
2021/06/22 13:08:52;;;;;;;0.00;0.00;;;;;;;;;;5083399;28;20197;-69
2021/06/22 13:11:23;;;;;;;0.00;0.00;;;;;;;;;;5095036;28;20207;-69
2021/06/22 13:13:50;;;;;;;0.10;0.10;;;;;;;;;;5103181;28;20423;-69
2021/06/22 13:16:16;;;;;;;0.00;0.00;;;;;;;;;;5103397;28;20468;-68
2021/06/22 13:19:03;;;;;;;0.00;0.00;;;;;;;;;;5103265;28;20247;-67
2021/06/22 13:21:39;;;;;;;0.00;0.00;;;;;;;;;;5098310;28;20464;-68
2021/06/22 13:24:06;;;;;;;0.00;0.00;;;;;;;;;;5083755;28;20204;-68
2021/06/22 13:26:33;;;;;;;0.00;0.00;;;;;;;;;;5099723;28;20221;-68
2021/06/22 13:29:00;;;;;;;0.00;0.00;;;;;;;;;;5090525;28;20429;-68
2021/06/22 13:31:27;;;;;;;0.10;0.10;;;;;;;;;;5084153;28;20203;-68
2021/06/22 13:34:00;;;;;;;0.00;0.00;;;;;;;;;;5095677;28;20204;-69
2021/06/22 13:36:27;;;;;;;0.00;0.00;;;;;;;;;;5102647;28;20441;-68
2021/06/22 13:39:08;;;;;;;0.10;0.10;;;;;;;;;;5091743;28;20201;-68
2021/06/22 13:41:44;;;;;;;0.10;0.10;;;;;;;;;;5099303;28;20270;-68
2021/06/22 13:44:10;;;;;;;0.00;0.00;;;;;;;;;;5086069;28;20254;-68
2021/06/22 13:46:38;;;;;;;0.00;0.00;;;;;;;;;;5082586;28;20232;-68
2021/06/22 13:49:04;;;;;;;0.00;0.00;;;;;;;;;;5099409;28;20208;-69
2021/06/22 13:51:31;;;;;;;0.08;0.08;;;;;;;;;;5084465;28;20409;-69
2021/06/22 13:54:04;;;;;;;0.00;0.00;;;;;;;;;;5084255;28;20244;-69
2021/06/22 13:56:33;;;;;;;0.00;0.00;;;;;;;;;;5085490;28;20238;-69
2021/06/22 13:58:59;;;;;;;0.00;0.00;;;;;;;;;;5094091;28;20262;-68
2021/06/22 14:01:25;;;;;;;0.00;0.00;;;;;;;;;;5093520;28;20277;-69
2021/06/22 14:03:52;;;;;;;0.00;0.00;;;;;;;;;;5083564;28;20219;-69
2021/06/22 14:06:18;;;;;;;0.00;0.00;;;;;;;;;;5096160;28;20224;-67
2021/06/22 14:08:44;;;;;;;0.00;0.00;;;;;;;;;;5095654;28;20204;-68
2021/06/22 14:11:11;;;;;;;0.00;0.00;;;;;;;;;;5091700;28;20220;-68
2021/06/22 14:13:38;;;;;;;0.10;0.10;;;;;;;;;;5096580;28;20219;-68
2021/06/22 14:16:05;;;;;;;0.00;0.00;;;;;;;;;;5087942;28;20273;-71
2021/06/22 14:18:31;;;;;;;0.00;0.00;;;;;;;;;;5091978;28;20645;-70
2021/06/22 14:20:58;;;;;;;0.03;0.03;;;;;;;;;;5092946;28;20206;-70
2021/06/22 14:23:25;;;;;;;0.00;0.00;;;;;;;;;;5099158;28;20228;-70
2021/06/22 14:25:51;;;;;;;0.00;0.00;;;;;;;;;;5091730;28;20228;-69
2021/06/22 14:28:19;;;;;;;0.00;0.00;;;;;;;;;;5095887;28;20252;-69
2021/06/22 14:30:47;;;;;;;0.00;0.00;;;;;;;;;;5087871;28;20219;-69
2021/06/22 14:33:14;;;;;;;0.00;0.00;;;;;;;;;;5095362;28;20510;-68
2021/06/22 14:35:40;;;;;;;0.00;0.00;;;;;;;;;;5096265;28;20353;-69
2021/06/22 14:38:07;;;;;;;0.00;0.00;;;;;;;;;;5093771;28;20392;-69
2021/06/22 14:40:33;;;;;;;0.00;0.00;;;;;;;;;;5094768;28;20260;-70
2021/06/22 14:42:59;;;;;;;0.00;0.00;;;;;;;;;;5105986;28;20206;-70
2021/06/22 14:45:27;;;;;;;0.00;0.00;;;;;;;;;;5101582;28;20469;-70